Memphis, Tennessee
Current Conditions -  °F | °C
As of 7:07 PM on Sunday 23 Nov 2014 (Local Time) from KMEM Reporting Station
Overcast Overcast  
Wind Chill: 16°   Ceiling: 1000
Heat Index: 16°   Visibility: 10mi
Dew Point: 14°   Wind: 13mph
Humidity: 88%   Direction: 210°SSW
Pressure: 29.45"   Gusts: NA
Location:  35.15°N, 90.05°W
Report Text: KMEM 240107Z 21011KT 10SM BKN010 OVC024 16/14 A2945 RMK AO2 CIG 008V013 PRESRR $
Loading
Personal Weather Stations






























Interactive Weather Map New forecast layout! Learn more

10-Day Weather Forecast

Advertisements
Track Severe Weather on mobile